createdAt,value
2023-04-20T00:01:47.650Z,3.13
2023-04-20T00:04:16.303Z,3.30
2023-04-20T00:06:44.766Z,3.37
2023-04-20T00:09:14.782Z,3.80
2023-04-20T00:11:43.915Z,3.67
2023-04-20T00:14:11.614Z,3.73
2023-04-20T00:16:39.406Z,3.10
2023-04-20T00:19:07.735Z,3.50
2023-04-20T00:21:36.062Z,3.40
2023-04-20T00:24:03.749Z,2.93
2023-04-20T00:26:31.530Z,3.23
2023-04-20T00:29:00.669Z,2.73
2023-04-20T00:31:28.428Z,2.67
2023-04-20T00:33:56.080Z,3.30
2023-04-20T00:36:23.761Z,2.57
2023-04-20T00:38:52.433Z,2.83
2023-04-20T00:41:22.244Z,2.67
2023-04-20T00:43:53.060Z,2.43
2023-04-20T00:46:22.747Z,2.73
2023-04-20T00:48:51.733Z,2.73
2023-04-20T00:51:20.573Z,2.77
2023-04-20T00:53:48.635Z,2.40
2023-04-20T00:56:17.239Z,2.50
2023-04-20T00:58:45.007Z,2.73
2023-04-20T01:01:13.516Z,2.33
2023-04-20T01:03:43.057Z,2.40
2023-04-20T01:06:10.983Z,2.40
2023-04-20T01:08:46.963Z,2.57
2023-04-20T01:11:14.918Z,2.70
2023-04-20T01:13:42.755Z,2.67
2023-04-20T01:16:10.561Z,3.00
2023-04-20T01:18:47.379Z,3.37
2023-04-20T01:21:17.894Z,3.23
2023-04-20T01:23:47.092Z,3.53
2023-04-20T01:26:18.335Z,3.70
2023-04-20T01:28:46.841Z,3.73
2023-04-20T01:31:16.548Z,3.57
2023-04-20T01:33:44.255Z,3.40
2023-04-20T01:36:12.614Z,3.50
2023-04-20T01:38:40.267Z,3.30
2023-04-20T01:41:10.714Z,3.50
2023-04-20T01:43:39.512Z,3.93
2023-04-20T01:46:07.364Z,3.27
2023-04-20T01:48:35.089Z,3.10
2023-04-20T01:51:02.769Z,3.00
2023-04-20T01:53:30.502Z,2.90
2023-04-20T01:55:58.210Z,2.90
2023-04-20T01:58:27.274Z,2.63
2023-04-20T02:00:55.583Z,2.30
2023-04-20T02:03:23.376Z,3.10
2023-04-20T02:05:51.225Z,2.43
2023-04-20T02:08:19.207Z,2.60
2023-04-20T02:10:47.042Z,2.43
2023-04-20T02:13:15.023Z,2.90
2023-04-20T02:15:43.980Z,3.03
2023-04-20T02:18:16.137Z,2.77
2023-04-20T02:20:43.866Z,3.10
2023-04-20T02:23:12.104Z,2.90
2023-04-20T02:25:40.224Z,2.73
2023-04-20T02:28:08.062Z,3.03
2023-04-20T02:30:38.663Z,2.43
2023-04-20T02:33:07.835Z,3.10
2023-04-20T02:35:35.492Z,2.67
2023-04-20T02:38:04.081Z,2.77
2023-04-20T02:40:31.752Z,2.83
2023-04-20T02:42:59.536Z,2.73
2023-04-20T02:45:28.846Z,3.10
2023-04-20T02:47:56.548Z,2.90
2023-04-20T02:50:28.059Z,3.10
2023-04-20T02:53:12.300Z,3.03
2023-04-20T02:55:40.745Z,2.93
2023-04-20T02:58:20.224Z,2.60
2023-04-20T03:01:16.840Z,3.30
2023-04-20T03:03:47.165Z,3.10
2023-04-20T03:06:17.817Z,3.07
2023-04-20T03:08:52.044Z,3.53
2023-04-20T03:11:52.173Z,3.33
2023-04-20T03:14:39.235Z,3.10
2023-04-20T03:17:07.087Z,3.03
2023-04-20T03:19:36.694Z,3.10
2023-04-20T03:22:06.446Z,3.70
2023-04-20T03:24:35.641Z,3.47
2023-04-20T03:27:16.719Z,2.60
2023-04-20T03:29:56.452Z,2.70
2023-04-20T03:32:24.669Z,3.00
2023-04-20T03:34:52.990Z,2.40
2023-04-20T03:37:22.704Z,2.70
2023-04-20T03:39:50.334Z,2.57
2023-04-20T03:42:19.530Z,2.77
2023-04-20T03:44:49.757Z,2.30
2023-04-20T03:47:17.466Z,2.60
2023-04-20T03:49:45.136Z,2.60
2023-04-20T03:52:13.548Z,3.00
2023-04-20T03:54:42.547Z,2.60
2023-04-20T03:57:12.391Z,2.57
2023-04-20T03:59:41.101Z,3.20
2023-04-20T04:02:10.985Z,2.80
2023-04-20T04:04:39.119Z,3.50
2023-04-20T04:07:07.307Z,3.17
2023-04-20T04:09:35.141Z,3.70
2023-04-20T04:12:06.783Z,3.50
2023-04-20T04:14:35.022Z,3.73
2023-04-20T04:17:03.105Z,3.60
2023-04-20T04:19:32.864Z,3.50
2023-04-20T04:22:01.943Z,4.13
2023-04-20T04:24:33.693Z,3.83
2023-04-20T04:27:08.343Z,4.13
2023-04-20T04:29:41.963Z,4.10
2023-04-20T04:32:14.736Z,4.83
2023-04-20T04:34:44.271Z,4.10
2023-04-20T04:37:12.307Z,4.80
2023-04-20T04:39:44.988Z,4.73
2023-04-20T04:42:28.079Z,5.00
2023-04-20T04:44:56.953Z,5.57
2023-04-20T04:47:30.481Z,5.03
2023-04-20T04:49:59.832Z,4.73
2023-04-20T04:59:34.238Z,4.37
2023-04-20T05:02:02.061Z,4.83
2023-04-20T05:04:29.906Z,4.93
2023-04-20T05:12:48.916Z,5.17
2023-04-20T05:15:18.085Z,5.40
2023-04-20T05:23:36.826Z,5.10
2023-04-20T05:26:04.571Z,6.53
2023-04-20T05:40:38.190Z,5.47
2023-04-20T05:43:06.128Z,5.47
2023-04-20T05:45:34.422Z,6.03
2023-04-20T05:53:47.142Z,5.17
2023-04-20T05:56:16.259Z,4.43
2023-04-20T05:58:44.333Z,5.17
2023-04-20T06:01:12.024Z,5.33
2023-04-20T06:03:39.954Z,5.70
2023-04-20T06:06:09.214Z,6.60
2023-04-20T06:08:37.022Z,6.03
2023-04-20T06:11:06.328Z,6.30
2023-04-20T06:13:35.573Z,6.30
2023-04-20T06:16:03.396Z,5.90
2023-04-20T06:18:31.269Z,6.17
2023-04-20T06:21:00.187Z,6.10
2023-04-20T06:23:28.058Z,6.23
2023-04-20T06:25:55.882Z,6.07
2023-04-20T06:28:23.822Z,6.83
2023-04-20T06:30:53.058Z,7.10
2023-04-20T06:33:22.103Z,6.50
2023-04-20T06:35:51.633Z,7.20
2023-04-20T06:38:20.835Z,6.77
2023-04-20T06:40:48.778Z,7.20
2023-04-20T06:43:18.129Z,5.87
2023-04-20T06:45:47.636Z,6.30
2023-04-20T06:48:31.547Z,5.83
2023-04-20T06:51:01.678Z,5.53
2023-04-20T06:53:29.587Z,5.77
2023-04-20T06:55:57.975Z,6.37
2023-04-20T06:58:25.983Z,6.90
2023-04-20T07:00:53.723Z,6.63
2023-04-20T07:03:23.432Z,6.20
2023-04-20T07:05:54.775Z,5.70
2023-04-20T07:08:22.654Z,5.93
2023-04-20T07:10:50.741Z,5.20
2023-04-20T07:13:18.748Z,5.60
2023-04-20T07:15:47.392Z,5.77
2023-04-20T07:18:15.556Z,5.57
2023-04-20T07:20:44.738Z,6.40
2023-04-20T07:23:13.629Z,6.37
2023-04-20T07:25:41.818Z,5.97
2023-04-20T07:28:11.126Z,6.63
2023-04-20T07:30:39.220Z,6.23
2023-04-20T07:33:08.444Z,6.33
2023-04-20T07:35:36.311Z,6.00
2023-04-20T07:38:05.469Z,5.70
2023-04-20T07:40:33.399Z,5.87
2023-04-20T07:43:01.439Z,6.70
2023-04-20T07:45:29.265Z,6.67
2023-04-20T07:47:57.573Z,6.70
2023-04-20T07:50:26.142Z,6.37
2023-04-20T07:52:54.409Z,6.40
2023-04-20T07:55:23.731Z,6.67
2023-04-20T07:57:52.253Z,6.40
2023-04-20T08:00:21.346Z,5.50
2023-04-20T08:02:49.402Z,5.70
2023-04-20T08:05:17.533Z,5.40
2023-04-20T08:07:45.692Z,6.37
2023-04-20T08:10:14.019Z,6.13
2023-04-20T08:12:43.569Z,6.73
2023-04-20T08:15:12.746Z,6.50
2023-04-20T08:17:43.818Z,6.17
2023-04-20T08:20:12.444Z,5.77
2023-04-20T08:22:42.184Z,5.13
2023-04-20T08:25:11.364Z,5.20
2023-04-20T08:27:39.403Z,4.93
2023-04-20T08:30:10.590Z,4.97
2023-04-20T08:32:38.691Z,5.00
2023-04-20T08:35:11.152Z,5.40
2023-04-20T08:37:40.525Z,5.47
2023-04-20T08:40:09.703Z,5.60
2023-04-20T08:42:38.101Z,5.47
2023-04-20T08:45:10.903Z,4.97
2023-04-20T08:47:39.881Z,4.83
2023-04-20T08:50:09.905Z,5.93
2023-04-20T08:52:39.829Z,6.00
2023-04-20T08:55:09.475Z,5.90
2023-04-20T08:57:37.774Z,5.73
2023-04-20T09:00:12.904Z,5.30
2023-04-20T09:02:53.084Z,5.10
2023-04-20T09:05:28.383Z,4.60
2023-04-20T09:07:57.947Z,5.03
2023-04-20T09:10:27.069Z,5.03
2023-04-20T09:12:55.833Z,5.60
2023-04-20T09:15:27.727Z,4.60
2023-04-20T09:17:57.312Z,4.70
2023-04-20T09:20:30.061Z,4.60
2023-04-20T09:22:57.941Z,4.43
2023-04-20T09:25:29.109Z,4.97
2023-04-20T09:27:59.389Z,4.57
2023-04-20T09:30:38.867Z,4.33
2023-04-20T09:33:11.021Z,4.40
2023-04-20T09:35:40.582Z,3.53
2023-04-20T09:38:09.110Z,4.43
2023-04-20T09:40:37.840Z,4.50
2023-04-20T09:43:10.932Z,4.93
2023-04-20T09:45:41.039Z,4.60
2023-04-20T09:48:18.990Z,4.50
2023-04-20T09:50:51.023Z,4.50
2023-04-20T09:53:21.141Z,3.90
2023-04-20T09:55:50.183Z,4.43
2023-04-20T09:58:21.784Z,4.73
2023-04-20T10:00:51.072Z,4.80
2023-04-20T10:03:22.101Z,4.30
2023-04-20T10:05:52.363Z,4.63
2023-04-20T10:08:21.384Z,4.40
2023-04-20T10:10:51.442Z,4.30
2023-04-20T10:13:22.113Z,4.13
2023-04-20T10:15:50.048Z,3.90
2023-04-20T10:18:23.502Z,3.40
2023-04-20T10:20:52.510Z,3.20
2023-04-20T10:23:20.590Z,3.23
2023-04-20T10:25:58.873Z,3.37
2023-04-20T10:28:27.019Z,3.50
2023-04-20T10:30:55.405Z,4.10
2023-04-20T10:33:24.775Z,4.40
2023-04-20T10:35:58.348Z,4.43
2023-04-20T10:38:32.274Z,4.40
2023-04-20T10:41:09.058Z,4.53
2023-04-20T10:43:39.221Z,4.33
2023-04-20T10:46:15.486Z,4.07
2023-04-20T10:48:56.494Z,4.30
2023-04-20T10:51:25.446Z,4.07
2023-04-20T10:54:00.766Z,3.40
2023-04-20T10:56:29.576Z,4.63
2023-04-20T10:59:14.108Z,4.00
2023-04-20T11:01:42.864Z,3.60
2023-04-20T11:04:12.716Z,4.50
2023-04-20T11:06:41.849Z,3.70
2023-04-20T11:09:20.754Z,3.80
2023-04-20T11:11:59.612Z,3.90
2023-04-20T11:14:27.689Z,4.10
2023-04-20T11:16:55.969Z,3.93
2023-04-20T11:19:26.933Z,3.50
2023-04-20T11:21:54.973Z,3.67
2023-04-20T11:24:26.803Z,3.50
2023-04-20T11:26:56.365Z,3.60
2023-04-20T11:29:31.956Z,3.60
2023-04-20T11:32:00.913Z,3.70
2023-04-20T11:34:30.585Z,3.50
2023-04-20T11:37:04.228Z,3.37
2023-04-20T11:39:32.447Z,3.67
2023-04-20T11:42:04.953Z,2.90
2023-04-20T11:44:34.961Z,3.43
2023-04-20T11:47:06.444Z,3.40
2023-04-20T11:49:35.728Z,3.00
2023-04-20T11:52:04.269Z,3.13
2023-04-20T11:54:34.045Z,3.57
2023-04-20T11:57:02.790Z,3.40
2023-04-20T11:59:30.688Z,3.50
2023-04-20T12:01:58.671Z,3.13
2023-04-20T12:04:29.400Z,3.10
2023-04-20T12:06:59.435Z,3.10
2023-04-20T12:09:27.902Z,3.50
2023-04-20T12:11:55.735Z,3.13
2023-04-20T12:14:23.566Z,3.33
2023-04-20T12:16:51.374Z,3.20
2023-04-20T12:19:19.525Z,3.43
2023-04-20T12:21:59.164Z,3.07
2023-04-20T12:24:31.640Z,3.17
2023-04-20T12:27:00.120Z,2.80
2023-04-20T12:29:46.373Z,3.23
2023-04-20T12:32:21.203Z,3.30
2023-04-20T12:34:53.732Z,3.60
2023-04-20T12:37:30.343Z,3.40
2023-04-20T12:40:07.658Z,3.70
2023-04-20T12:42:35.852Z,3.20
2023-04-20T12:45:04.729Z,3.17
2023-04-20T12:47:32.598Z,3.47
2023-04-20T12:50:00.644Z,3.27
2023-04-20T12:52:29.611Z,2.67
2023-04-20T12:54:58.099Z,2.67
2023-04-20T12:57:28.112Z,3.03
2023-04-20T12:59:56.472Z,3.33
2023-04-20T13:02:24.512Z,3.90
2023-04-20T13:04:53.449Z,3.50
2023-04-20T13:07:21.357Z,3.30
2023-04-20T13:09:49.162Z,3.53
2023-04-20T13:12:16.949Z,3.17
2023-04-20T13:14:46.057Z,2.90
2023-04-20T13:17:13.832Z,3.13
2023-04-20T13:19:41.751Z,2.50
2023-04-20T13:22:09.696Z,2.80
2023-04-20T13:24:37.481Z,3.10
2023-04-20T13:27:05.564Z,2.90
2023-04-20T13:29:33.397Z,3.00
2023-04-20T13:32:02.795Z,2.63
2023-04-20T13:34:30.862Z,2.80
2023-04-20T13:36:58.964Z,2.70
2023-04-20T13:39:27.949Z,2.40
2023-04-20T13:41:55.721Z,2.60
2023-04-20T13:44:23.628Z,2.87
2023-04-20T13:46:51.603Z,2.80
2023-04-20T13:49:22.977Z,3.47
2023-04-20T13:51:51.134Z,3.13
2023-04-20T13:54:19.446Z,3.37
2023-04-20T13:56:47.579Z,3.30
2023-04-20T13:59:16.581Z,3.10
2023-04-20T14:01:44.782Z,3.73
2023-04-20T14:04:13.404Z,4.13
2023-04-20T14:06:43.435Z,4.27
2023-04-20T14:09:13.151Z,4.97
2023-04-20T14:11:43.780Z,5.60
2023-04-20T14:14:15.464Z,5.20
2023-04-20T14:16:45.096Z,6.00
2023-04-20T14:19:13.536Z,5.27
2023-04-20T14:21:44.452Z,5.90
2023-04-20T14:24:12.911Z,5.30
2023-04-20T14:26:41.145Z,5.40
2023-04-20T14:29:09.422Z,5.00
2023-04-20T14:31:38.447Z,5.10
2023-04-20T14:34:06.675Z,5.30
2023-04-20T14:36:34.688Z,4.80
2023-04-20T14:39:05.603Z,5.17
2023-04-20T14:41:35.992Z,5.10
2023-04-20T14:44:08.608Z,5.87
2023-04-20T14:46:37.784Z,6.47
2023-04-20T14:49:09.471Z,6.33
2023-04-20T14:51:37.589Z,6.47
2023-04-20T14:54:12.539Z,6.10
2023-04-20T14:56:40.308Z,6.50
2023-04-20T14:59:08.779Z,6.53
2023-04-20T15:01:36.747Z,7.00
2023-04-20T15:04:04.864Z,6.60
2023-04-20T15:06:34.519Z,6.87
2023-04-20T15:09:03.022Z,5.93
2023-04-20T15:11:32.253Z,6.70
2023-04-20T15:14:00.155Z,8.83
2023-04-20T15:16:27.949Z,8.00
2023-04-20T15:18:56.025Z,8.73
2023-04-20T15:21:24.511Z,9.57
2023-04-20T15:23:52.297Z,9.37
2023-04-20T15:26:23.039Z,8.63
2023-04-20T15:28:52.477Z,9.57
2023-04-20T15:31:20.329Z,10.67
2023-04-20T15:33:48.898Z,10.37
2023-04-20T15:36:19.603Z,11.23
2023-04-20T15:38:47.646Z,10.87
2023-04-20T15:41:16.466Z,10.10
2023-04-20T15:43:44.698Z,9.03
2023-04-20T15:46:13.806Z,9.47
2023-04-20T15:48:41.661Z,9.03
2023-04-20T15:51:09.443Z,8.87
2023-04-20T15:53:37.417Z,9.20
2023-04-20T15:56:05.619Z,9.67
2023-04-20T15:58:33.400Z,9.90
2023-04-20T16:01:01.265Z,10.80
2023-04-20T16:03:30.694Z,10.67
2023-04-20T16:05:58.935Z,9.60
2023-04-20T16:08:26.641Z,10.90
2023-04-20T16:10:55.034Z,11.07
2023-04-20T16:13:22.880Z,9.30
2023-04-20T16:15:50.890Z,9.57
2023-04-20T16:18:18.686Z,8.60
2023-04-20T16:20:48.143Z,7.87
2023-04-20T16:23:16.014Z,7.40
2023-04-20T16:25:43.943Z,7.30
2023-04-20T16:28:11.757Z,7.20
2023-04-20T16:30:39.500Z,6.93
2023-04-20T16:33:07.660Z,7.40
2023-04-20T16:35:36.701Z,7.03
2023-04-20T16:38:06.818Z,7.33
2023-04-20T16:40:36.141Z,7.47
2023-04-20T16:43:03.968Z,7.60
2023-04-20T16:45:33.190Z,7.37
2023-04-20T16:48:01.124Z,8.07
2023-04-20T16:50:29.359Z,6.80
2023-04-20T16:52:57.090Z,8.07
2023-04-20T16:55:27.029Z,8.23
2023-04-20T16:57:59.721Z,7.90
2023-04-20T17:00:28.165Z,6.83
2023-04-20T17:02:56.165Z,5.67
2023-04-20T17:05:24.512Z,5.80
2023-04-20T17:07:52.423Z,5.67
2023-04-20T17:10:23.333Z,5.20
2023-04-20T17:12:55.246Z,5.23
2023-04-20T17:15:29.075Z,5.43
2023-04-20T17:17:57.005Z,5.10
2023-04-20T17:20:43.150Z,5.20
2023-04-20T17:23:11.014Z,5.43
2023-04-20T17:25:42.242Z,5.03
2023-04-20T17:28:16.107Z,4.90
2023-04-20T17:30:46.354Z,5.03
2023-04-20T17:33:20.774Z,4.50
2023-04-20T17:35:51.423Z,4.47
2023-04-20T17:38:20.429Z,4.80
2023-04-20T17:40:54.777Z,4.13
2023-04-20T17:43:28.460Z,4.37
2023-04-20T17:46:01.160Z,4.40
2023-04-20T17:48:33.885Z,4.20
2023-04-20T17:51:07.649Z,4.00
2023-04-20T17:53:39.959Z,4.20
2023-04-20T17:56:08.045Z,3.80
2023-04-20T17:58:37.149Z,3.87
2023-04-20T18:01:05.085Z,3.67
2023-04-20T18:03:33.025Z,3.90
2023-04-20T18:06:00.873Z,3.57
2023-04-20T18:08:29.324Z,4.10
2023-04-20T18:10:57.031Z,3.60
2023-04-20T18:13:24.689Z,3.27
2023-04-20T18:15:53.711Z,3.80
2023-04-20T18:18:21.993Z,3.30
2023-04-20T18:20:49.729Z,3.53
2023-04-20T18:23:17.434Z,3.07
2023-04-20T18:25:45.176Z,3.50
2023-04-20T18:28:12.808Z,3.33
2023-04-20T18:30:40.569Z,3.20
2023-04-20T18:33:09.617Z,3.10
2023-04-20T18:35:37.312Z,3.23
2023-04-20T18:38:05.698Z,3.10
2023-04-20T18:40:33.353Z,3.30
2023-04-20T18:43:01.542Z,3.17
2023-04-20T18:45:29.936Z,3.70
2023-04-20T18:47:58.460Z,3.23
2023-04-20T18:50:27.552Z,3.30
2023-04-20T18:52:55.269Z,3.03
2023-04-20T18:55:22.927Z,2.90
2023-04-20T18:57:50.599Z,3.50
2023-04-20T19:00:20.138Z,2.87
2023-04-20T19:02:47.967Z,2.90
2023-04-20T19:05:15.902Z,3.03
2023-04-20T19:07:46.153Z,3.20
2023-04-20T19:10:13.893Z,3.30
2023-04-20T19:12:41.556Z,3.37
2023-04-20T19:15:10.253Z,3.50
2023-04-20T19:17:37.904Z,3.47
2023-04-20T19:20:06.588Z,3.73
2023-04-20T19:22:34.258Z,4.03
2023-04-20T19:25:03.522Z,3.47
2023-04-20T19:27:31.411Z,3.87
2023-04-20T19:29:59.166Z,3.70
2023-04-20T19:32:27.046Z,3.83
2023-04-20T19:34:57.361Z,3.73
2023-04-20T19:37:25.025Z,4.87
2023-04-20T19:39:52.719Z,4.73
2023-04-20T19:42:22.816Z,5.23
2023-04-20T19:44:50.750Z,4.40
2023-04-20T19:47:18.992Z,4.83
2023-04-20T19:49:46.765Z,4.60
2023-04-20T19:52:14.450Z,5.03
2023-04-20T19:54:42.106Z,5.10
2023-04-20T19:57:10.285Z,5.50
2023-04-20T19:59:40.164Z,5.07
2023-04-20T20:02:08.234Z,5.30
2023-04-20T20:04:37.697Z,5.53
2023-04-20T20:07:05.644Z,5.40
2023-04-20T20:09:33.305Z,5.47
2023-04-20T20:12:01.887Z,4.53
2023-04-20T20:14:31.086Z,4.90
2023-04-20T20:17:00.119Z,5.40
2023-04-20T20:19:27.847Z,4.23
2023-04-20T20:21:55.612Z,4.60
2023-04-20T20:24:25.130Z,5.50
2023-04-20T20:26:52.975Z,4.63
2023-04-20T20:29:21.069Z,4.60
2023-04-20T20:31:48.989Z,5.03
2023-04-20T20:34:18.074Z,4.10
2023-04-20T20:36:46.315Z,5.00
2023-04-20T20:39:14.561Z,5.00
2023-04-20T20:41:42.732Z,4.83
2023-04-20T20:44:11.215Z,4.90
2023-04-20T20:46:39.413Z,5.10
2023-04-20T20:49:07.280Z,5.50
2023-04-20T20:51:36.259Z,5.13
2023-04-20T20:54:03.952Z,5.00
2023-04-20T20:56:31.697Z,4.83
2023-04-20T20:58:59.370Z,4.23
2023-04-20T21:01:27.221Z,5.00
2023-04-20T21:03:55.308Z,4.60
2023-04-20T21:06:23.286Z,4.87
2023-04-20T21:08:52.295Z,4.90
2023-04-20T21:11:19.924Z,4.70
2023-04-20T21:13:47.600Z,4.30
2023-04-20T21:16:15.230Z,4.80
2023-04-20T21:18:42.878Z,4.40
2023-04-20T21:21:13.422Z,4.33
2023-04-20T21:23:41.124Z,4.50
2023-04-20T21:26:10.133Z,4.40
2023-04-20T21:28:37.837Z,4.70
2023-04-20T21:31:05.707Z,4.67
2023-04-20T21:33:35.695Z,5.10
2023-04-20T21:36:03.387Z,5.17
2023-04-20T21:38:31.069Z,5.37
2023-04-20T21:40:58.793Z,4.97
2023-04-20T21:43:27.852Z,4.90
2023-04-20T21:45:55.587Z,5.30
2023-04-20T21:48:23.323Z,5.97
2023-04-20T21:50:50.977Z,4.80
2023-04-20T21:53:18.739Z,5.40
2023-04-20T21:55:46.370Z,5.03
2023-04-20T21:58:14.194Z,5.17
2023-04-20T22:00:43.189Z,5.57
2023-04-20T22:03:10.977Z,5.53
2023-04-20T22:05:39.115Z,6.20
2023-04-20T22:08:06.793Z,5.93
2023-04-20T22:10:34.778Z,5.67
2023-04-20T22:13:02.452Z,5.33
2023-04-20T22:15:30.118Z,5.10
2023-04-20T22:18:00.550Z,5.50
2023-04-20T22:20:28.300Z,5.50
2023-04-20T22:22:56.076Z,4.60
2023-04-20T22:25:24.654Z,5.13
2023-04-20T22:27:52.360Z,4.80
2023-04-20T22:30:20.020Z,4.30
2023-04-20T22:32:47.702Z,4.40
2023-04-20T22:35:16.856Z,4.60
2023-04-20T22:37:44.500Z,4.10
2023-04-20T22:40:13.334Z,3.60
2023-04-20T22:42:41.353Z,3.83
2023-04-20T22:45:10.841Z,4.03
2023-04-20T22:47:38.780Z,3.47
2023-04-20T22:50:09.602Z,3.10
2023-04-20T22:52:39.149Z,3.20
2023-04-20T22:55:07.858Z,3.50
2023-04-20T22:57:35.514Z,3.17
2023-04-20T23:00:08.647Z,3.23
2023-04-20T23:02:36.456Z,3.27
2023-04-20T23:05:04.804Z,3.00
2023-04-20T23:07:33.139Z,3.30
2023-04-20T23:10:02.763Z,3.50
2023-04-20T23:12:30.481Z,3.53
2023-04-20T23:15:01.425Z,3.30
2023-04-20T23:17:29.587Z,3.07
2023-04-20T23:19:57.317Z,3.13
2023-04-20T23:22:25.918Z,3.73
2023-04-20T23:24:53.572Z,3.70
2023-04-20T23:27:22.560Z,3.70
2023-04-20T23:29:50.188Z,3.43
2023-04-20T23:32:17.821Z,3.50
2023-04-20T23:34:46.001Z,2.80
2023-04-20T23:37:13.682Z,3.20
2023-04-20T23:39:41.343Z,3.03
2023-04-20T23:42:09.047Z,3.30
2023-04-20T23:44:38.137Z,3.20
2023-04-20T23:47:05.901Z,2.90
2023-04-20T23:49:33.715Z,3.10
2023-04-20T23:52:01.338Z,2.60
2023-04-20T23:54:29.801Z,2.80
2023-04-20T23:56:58.400Z,3.30
2023-04-20T23:59:26.229Z,3.00
